sensor_id;sensor_type;location;lat;lon;timestamp;P1;durP1;ratioP1;P2;durP2;ratioP2
15383;SDS011;7790;53.022;12.968;2023-07-31T00:01:35;2.27;;;1.20;;
15383;SDS011;7790;53.022;12.968;2023-07-31T00:05:35;1.33;;;1.20;;
15383;SDS011;7790;53.022;12.968;2023-07-31T00:09:36;1.63;;;1.07;;
15383;SDS011;7790;53.022;12.968;2023-07-31T00:13:37;1.20;;;0.97;;
15383;SDS011;7790;53.022;12.968;2023-07-31T00:17:38;1.37;;;1.20;;
15383;SDS011;7790;53.022;12.968;2023-07-31T00:21:39;1.53;;;1.20;;
15383;SDS011;7790;53.022;12.968;2023-07-31T00:25:40;1.10;;;0.93;;
15383;SDS011;7790;53.022;12.968;2023-07-31T00:29:42;1.43;;;1.10;;
15383;SDS011;7790;53.022;12.968;2023-07-31T00:33:43;0.87;;;0.77;;
15383;SDS011;7790;53.022;12.968;2023-07-31T00:37:44;1.20;;;1.10;;
15383;SDS011;7790;53.022;12.968;2023-07-31T00:41:46;1.17;;;1.07;;
15383;SDS011;7790;53.022;12.968;2023-07-31T00:45:47;1.67;;;1.00;;
15383;SDS011;7790;53.022;12.968;2023-07-31T00:49:47;1.27;;;0.90;;
15383;SDS011;7790;53.022;12.968;2023-07-31T00:53:48;1.17;;;1.07;;
15383;SDS011;7790;53.022;12.968;2023-07-31T00:57:49;1.27;;;1.17;;
15383;SDS011;7790;53.022;12.968;2023-07-31T01:01:53;1.33;;;1.10;;
15383;SDS011;7790;53.022;12.968;2023-07-31T01:10:19;2.30;;;1.10;;
15383;SDS011;7790;53.022;12.968;2023-07-31T01:14:23;1.23;;;1.13;;
15383;SDS011;7790;53.022;12.968;2023-07-31T01:18:24;1.20;;;1.00;;
15383;SDS011;7790;53.022;12.968;2023-07-31T01:22:48;1.90;;;1.10;;
15383;SDS011;7790;53.022;12.968;2023-07-31T01:27:10;2.07;;;1.30;;
15383;SDS011;7790;53.022;12.968;2023-07-31T01:31:17;1.20;;;1.10;;
15383;SDS011;7790;53.022;12.968;2023-07-31T01:35:21;1.67;;;1.10;;
15383;SDS011;7790;53.022;12.968;2023-07-31T01:39:22;0.90;;;0.90;;
15383;SDS011;7790;53.022;12.968;2023-07-31T01:43:23;1.30;;;1.00;;
15383;SDS011;7790;53.022;12.968;2023-07-31T01:47:24;1.30;;;1.20;;
15383;SDS011;7790;53.022;12.968;2023-07-31T01:51:26;1.03;;;1.03;;
15383;SDS011;7790;53.022;12.968;2023-07-31T01:55:26;1.30;;;1.20;;
15383;SDS011;7790;53.022;12.968;2023-07-31T01:59:27;1.50;;;1.20;;
15383;SDS011;7790;53.022;12.968;2023-07-31T02:03:29;1.47;;;0.80;;
15383;SDS011;7790;53.022;12.968;2023-07-31T02:07:30;0.97;;;0.93;;
15383;SDS011;7790;53.022;12.968;2023-07-31T02:11:31;1.20;;;0.80;;
15383;SDS011;7790;53.022;12.968;2023-07-31T02:15:31;1.27;;;0.93;;
15383;SDS011;7790;53.022;12.968;2023-07-31T02:19:32;1.23;;;1.13;;
15383;SDS011;7790;53.022;12.968;2023-07-31T02:23:33;1.40;;;1.20;;
15383;SDS011;7790;53.022;12.968;2023-07-31T02:27:34;1.20;;;0.97;;
15383;SDS011;7790;53.022;12.968;2023-07-31T02:31:35;1.37;;;1.10;;
15383;SDS011;7790;53.022;12.968;2023-07-31T02:35:36;1.37;;;1.00;;
15383;SDS011;7790;53.022;12.968;2023-07-31T02:39:36;2.77;;;1.10;;
15383;SDS011;7790;53.022;12.968;2023-07-31T02:43:37;2.20;;;1.13;;
15383;SDS011;7790;53.022;12.968;2023-07-31T02:47:38;3.47;;;1.17;;
15383;SDS011;7790;53.022;12.968;2023-07-31T02:51:39;2.47;;;1.23;;
15383;SDS011;7790;53.022;12.968;2023-07-31T02:55:40;1.77;;;1.33;;
15383;SDS011;7790;53.022;12.968;2023-07-31T02:59:41;3.13;;;1.40;;
15383;SDS011;7790;53.022;12.968;2023-07-31T03:03:42;1.83;;;1.40;;
15383;SDS011;7790;53.022;12.968;2023-07-31T03:07:43;2.13;;;1.10;;
15383;SDS011;7790;53.022;12.968;2023-07-31T03:11:44;2.57;;;1.37;;
15383;SDS011;7790;53.022;12.968;2023-07-31T03:15:45;4.27;;;1.70;;
15383;SDS011;7790;53.022;12.968;2023-07-31T03:19:46;2.97;;;1.40;;
15383;SDS011;7790;53.022;12.968;2023-07-31T03:23:47;2.23;;;1.30;;
15383;SDS011;7790;53.022;12.968;2023-07-31T03:27:48;2.10;;;1.30;;
15383;SDS011;7790;53.022;12.968;2023-07-31T03:31:48;1.83;;;1.37;;
15383;SDS011;7790;53.022;12.968;2023-07-31T03:35:49;2.77;;;1.37;;
15383;SDS011;7790;53.022;12.968;2023-07-31T03:39:50;2.73;;;1.20;;
15383;SDS011;7790;53.022;12.968;2023-07-31T03:43:51;3.90;;;1.40;;
15383;SDS011;7790;53.022;12.968;2023-07-31T03:47:52;3.67;;;1.33;;
15383;SDS011;7790;53.022;12.968;2023-07-31T03:51:54;3.50;;;1.40;;
15383;SDS011;7790;53.022;12.968;2023-07-31T03:55:55;1.40;;;1.30;;
15383;SDS011;7790;53.022;12.968;2023-07-31T03:59:56;1.90;;;1.17;;
15383;SDS011;7790;53.022;12.968;2023-07-31T04:03:58;4.37;;;1.83;;
15383;SDS011;7790;53.022;12.968;2023-07-31T04:07:59;4.00;;;1.60;;
15383;SDS011;7790;53.022;12.968;2023-07-31T04:11:59;2.70;;;1.40;;
15383;SDS011;7790;53.022;12.968;2023-07-31T04:16:00;3.47;;;1.53;;
15383;SDS011;7790;53.022;12.968;2023-07-31T04:20:01;2.97;;;1.70;;
15383;SDS011;7790;53.022;12.968;2023-07-31T04:24:02;3.20;;;1.97;;
15383;SDS011;7790;53.022;12.968;2023-07-31T04:28:04;2.27;;;1.43;;
15383;SDS011;7790;53.022;12.968;2023-07-31T04:32:05;2.73;;;1.47;;
15383;SDS011;7790;53.022;12.968;2023-07-31T04:36:06;5.63;;;1.80;;
15383;SDS011;7790;53.022;12.968;2023-07-31T04:40:07;3.77;;;1.90;;
15383;SDS011;7790;53.022;12.968;2023-07-31T04:44:08;2.27;;;1.70;;
15383;SDS011;7790;53.022;12.968;2023-07-31T04:48:11;2.47;;;1.60;;
15383;SDS011;7790;53.022;12.968;2023-07-31T04:52:12;2.80;;;1.70;;
15383;SDS011;7790;53.022;12.968;2023-07-31T04:56:13;3.63;;;1.60;;
15383;SDS011;7790;53.022;12.968;2023-07-31T05:00:15;4.20;;;1.60;;
15383;SDS011;7790;53.022;12.968;2023-07-31T05:04:16;3.40;;;1.90;;
15383;SDS011;7790;53.022;12.968;2023-07-31T05:08:17;3.03;;;1.70;;
15383;SDS011;7790;53.022;12.968;2023-07-31T05:12:18;2.83;;;1.50;;
15383;SDS011;7790;53.022;12.968;2023-07-31T05:16:19;3.43;;;1.33;;
15383;SDS011;7790;53.022;12.968;2023-07-31T05:20:20;2.20;;;1.40;;
15383;SDS011;7790;53.022;12.968;2023-07-31T05:24:21;3.33;;;1.60;;
15383;SDS011;7790;53.022;12.968;2023-07-31T05:28:22;3.67;;;1.60;;
15383;SDS011;7790;53.022;12.968;2023-07-31T05:32:23;2.90;;;1.70;;
15383;SDS011;7790;53.022;12.968;2023-07-31T05:36:24;2.40;;;1.50;;
15383;SDS011;7790;53.022;12.968;2023-07-31T05:40:25;3.33;;;1.60;;
15383;SDS011;7790;53.022;12.968;2023-07-31T05:44:25;1.53;;;1.37;;
15383;SDS011;7790;53.022;12.968;2023-07-31T05:48:26;2.03;;;1.30;;
15383;SDS011;7790;53.022;12.968;2023-07-31T05:52:27;1.70;;;1.60;;
15383;SDS011;7790;53.022;12.968;2023-07-31T05:56:29;2.67;;;1.50;;
15383;SDS011;7790;53.022;12.968;2023-07-31T06:00:30;3.00;;;1.27;;
15383;SDS011;7790;53.022;12.968;2023-07-31T06:04:31;2.73;;;1.63;;
15383;SDS011;7790;53.022;12.968;2023-07-31T06:08:31;3.83;;;1.90;;
15383;SDS011;7790;53.022;12.968;2023-07-31T06:12:33;2.63;;;1.73;;
15383;SDS011;7790;53.022;12.968;2023-07-31T06:16:34;1.47;;;1.37;;
15383;SDS011;7790;53.022;12.968;2023-07-31T06:20:35;2.47;;;1.50;;
15383;SDS011;7790;53.022;12.968;2023-07-31T06:24:36;2.90;;;1.40;;
15383;SDS011;7790;53.022;12.968;2023-07-31T06:28:37;3.50;;;1.47;;
15383;SDS011;7790;53.022;12.968;2023-07-31T06:32:38;1.37;;;1.27;;
15383;SDS011;7790;53.022;12.968;2023-07-31T06:36:40;3.17;;;1.60;;
15383;SDS011;7790;53.022;12.968;2023-07-31T06:40:41;2.13;;;1.60;;
15383;SDS011;7790;53.022;12.968;2023-07-31T06:44:42;3.03;;;1.30;;
15383;SDS011;7790;53.022;12.968;2023-07-31T06:48:43;9.07;;;2.00;;
15383;SDS011;7790;53.022;12.968;2023-07-31T06:52:44;8.93;;;2.10;;
15383;SDS011;7790;53.022;12.968;2023-07-31T06:56:45;3.40;;;1.50;;
15383;SDS011;7790;53.022;12.968;2023-07-31T07:00:45;2.90;;;1.40;;
15383;SDS011;7790;53.022;12.968;2023-07-31T07:04:46;3.47;;;1.60;;
15383;SDS011;7790;53.022;12.968;2023-07-31T07:08:49;4.27;;;1.90;;
15383;SDS011;7790;53.022;12.968;2023-07-31T07:12:49;6.97;;;2.03;;
15383;SDS011;7790;53.022;12.968;2023-07-31T07:16:51;4.50;;;2.10;;
15383;SDS011;7790;53.022;12.968;2023-07-31T07:20:53;4.60;;;2.40;;
15383;SDS011;7790;53.022;12.968;2023-07-31T07:24:54;2.20;;;1.83;;
15383;SDS011;7790;53.022;12.968;2023-07-31T07:28:55;3.13;;;2.17;;
15383;SDS011;7790;53.022;12.968;2023-07-31T07:32:56;5.43;;;2.20;;
15383;SDS011;7790;53.022;12.968;2023-07-31T07:36:57;3.97;;;2.23;;
15383;SDS011;7790;53.022;12.968;2023-07-31T07:40:57;5.60;;;2.17;;
15383;SDS011;7790;53.022;12.968;2023-07-31T07:44:58;3.60;;;2.20;;
15383;SDS011;7790;53.022;12.968;2023-07-31T07:48:59;3.47;;;2.00;;
15383;SDS011;7790;53.022;12.968;2023-07-31T07:53:00;3.73;;;2.17;;
15383;SDS011;7790;53.022;12.968;2023-07-31T07:57:01;4.13;;;2.60;;
15383;SDS011;7790;53.022;12.968;2023-07-31T08:01:02;5.27;;;2.57;;
15383;SDS011;7790;53.022;12.968;2023-07-31T08:05:02;3.67;;;2.20;;
15383;SDS011;7790;53.022;12.968;2023-07-31T08:09:03;2.57;;;2.10;;
15383;SDS011;7790;53.022;12.968;2023-07-31T08:13:06;6.13;;;2.23;;
15383;SDS011;7790;53.022;12.968;2023-07-31T08:17:07;6.40;;;2.10;;
15383;SDS011;7790;53.022;12.968;2023-07-31T08:21:08;3.30;;;1.73;;
15383;SDS011;7790;53.022;12.968;2023-07-31T08:25:09;2.37;;;1.70;;
15383;SDS011;7790;53.022;12.968;2023-07-31T08:29:10;3.20;;;1.40;;
15383;SDS011;7790;53.022;12.968;2023-07-31T08:33:11;4.17;;;1.60;;
15383;SDS011;7790;53.022;12.968;2023-07-31T08:37:11;3.97;;;1.73;;
15383;SDS011;7790;53.022;12.968;2023-07-31T08:41:12;2.60;;;1.13;;
15383;SDS011;7790;53.022;12.968;2023-07-31T08:45:14;3.03;;;1.40;;
15383;SDS011;7790;53.022;12.968;2023-07-31T08:49:16;1.50;;;1.40;;
15383;SDS011;7790;53.022;12.968;2023-07-31T08:53:19;4.27;;;1.63;;
15383;SDS011;7790;53.022;12.968;2023-07-31T08:57:20;1.40;;;1.30;;
15383;SDS011;7790;53.022;12.968;2023-07-31T09:01:21;2.80;;;1.33;;
15383;SDS011;7790;53.022;12.968;2023-07-31T09:05:23;2.00;;;1.30;;
15383;SDS011;7790;53.022;12.968;2023-07-31T09:09:27;1.70;;;1.50;;
15383;SDS011;7790;53.022;12.968;2023-07-31T09:13:29;2.50;;;1.60;;
15383;SDS011;7790;53.022;12.968;2023-07-31T09:17:35;2.20;;;1.40;;
15383;SDS011;7790;53.022;12.968;2023-07-31T09:21:47;1.20;;;1.10;;
15383;SDS011;7790;53.022;12.968;2023-07-31T09:25:48;2.40;;;1.33;;
15383;SDS011;7790;53.022;12.968;2023-07-31T09:29:58;2.97;;;1.37;;
15383;SDS011;7790;53.022;12.968;2023-07-31T09:33:59;3.67;;;1.53;;
15383;SDS011;7790;53.022;12.968;2023-07-31T09:38:03;2.13;;;1.20;;
15383;SDS011;7790;53.022;12.968;2023-07-31T09:42:05;1.63;;;1.33;;
15383;SDS011;7790;53.022;12.968;2023-07-31T09:46:12;1.17;;;1.10;;
15383;SDS011;7790;53.022;12.968;2023-07-31T09:50:14;1.30;;;1.20;;
15383;SDS011;7790;53.022;12.968;2023-07-31T09:54:16;1.40;;;1.30;;
15383;SDS011;7790;53.022;12.968;2023-07-31T09:58:17;3.40;;;1.30;;
15383;SDS011;7790;53.022;12.968;2023-07-31T10:02:22;2.23;;;1.40;;
15383;SDS011;7790;53.022;12.968;2023-07-31T10:06:23;1.27;;;1.10;;
15383;SDS011;7790;53.022;12.968;2023-07-31T10:10:26;1.10;;;1.00;;
15383;SDS011;7790;53.022;12.968;2023-07-31T10:14:28;0.97;;;0.90;;
15383;SDS011;7790;53.022;12.968;2023-07-31T10:18:29;1.50;;;0.80;;
15383;SDS011;7790;53.022;12.968;2023-07-31T10:22:31;0.70;;;0.70;;
15383;SDS011;7790;53.022;12.968;2023-07-31T10:26:32;0.70;;;0.70;;
15383;SDS011;7790;53.022;12.968;2023-07-31T10:30:34;0.97;;;0.90;;
15383;SDS011;7790;53.022;12.968;2023-07-31T10:34:38;1.33;;;0.90;;
15383;SDS011;7790;53.022;12.968;2023-07-31T10:38:40;1.07;;;0.97;;
15383;SDS011;7790;53.022;12.968;2023-07-31T10:46:49;0.80;;;0.80;;
15383;SDS011;7790;53.022;12.968;2023-07-31T10:50:56;1.30;;;1.20;;
15383;SDS011;7790;53.022;12.968;2023-07-31T10:59:28;1.50;;;1.40;;
15383;SDS011;7790;53.022;12.968;2023-07-31T11:03:48;1.50;;;1.40;;
15383;SDS011;7790;53.022;12.968;2023-07-31T11:07:52;1.80;;;1.70;;
15383;SDS011;7790;53.022;12.968;2023-07-31T11:11:56;4.27;;;2.10;;
15383;SDS011;7790;53.022;12.968;2023-07-31T11:15:57;2.40;;;2.10;;
15383;SDS011;7790;53.022;12.968;2023-07-31T11:19:59;2.73;;;2.40;;
15383;SDS011;7790;53.022;12.968;2023-07-31T11:24:00;4.33;;;2.80;;
15383;SDS011;7790;53.022;12.968;2023-07-31T11:28:04;3.00;;;2.57;;
15383;SDS011;7790;53.022;12.968;2023-07-31T11:32:08;2.70;;;2.50;;
15383;SDS011;7790;53.022;12.968;2023-07-31T11:36:18;2.77;;;2.50;;
15383;SDS011;7790;53.022;12.968;2023-07-31T11:40:20;3.50;;;2.97;;
15383;SDS011;7790;53.022;12.968;2023-07-31T11:44:21;4.00;;;3.60;;
15383;SDS011;7790;53.022;12.968;2023-07-31T11:48:24;5.93;;;3.70;;
15383;SDS011;7790;53.022;12.968;2023-07-31T11:52:31;5.80;;;3.63;;
15383;SDS011;7790;53.022;12.968;2023-07-31T11:56:36;4.03;;;3.40;;
15383;SDS011;7790;53.022;12.968;2023-07-31T12:00:37;4.70;;;3.80;;
15383;SDS011;7790;53.022;12.968;2023-07-31T12:04:38;5.30;;;3.77;;
15383;SDS011;7790;53.022;12.968;2023-07-31T12:08:39;4.33;;;3.90;;
15383;SDS011;7790;53.022;12.968;2023-07-31T12:12:40;7.47;;;3.90;;
15383;SDS011;7790;53.022;12.968;2023-07-31T12:16:41;7.77;;;4.13;;
15383;SDS011;7790;53.022;12.968;2023-07-31T12:20:46;7.83;;;4.20;;
15383;SDS011;7790;53.022;12.968;2023-07-31T12:24:49;7.47;;;4.20;;
15383;SDS011;7790;53.022;12.968;2023-07-31T12:28:54;7.13;;;3.80;;
15383;SDS011;7790;53.022;12.968;2023-07-31T12:32:55;7.50;;;3.97;;
15383;SDS011;7790;53.022;12.968;2023-07-31T12:36:56;8.13;;;4.03;;
15383;SDS011;7790;53.022;12.968;2023-07-31T12:40:57;5.60;;;4.10;;
15383;SDS011;7790;53.022;12.968;2023-07-31T12:44:58;4.20;;;3.80;;
15383;SDS011;7790;53.022;12.968;2023-07-31T12:48:59;4.77;;;4.00;;
15383;SDS011;7790;53.022;12.968;2023-07-31T12:53:00;5.50;;;3.80;;
15383;SDS011;7790;53.022;12.968;2023-07-31T12:57:00;4.40;;;3.33;;
15383;SDS011;7790;53.022;12.968;2023-07-31T13:01:01;4.53;;;3.83;;
15383;SDS011;7790;53.022;12.968;2023-07-31T13:05:02;4.87;;;3.50;;
15383;SDS011;7790;53.022;12.968;2023-07-31T13:09:03;6.10;;;3.40;;
15383;SDS011;7790;53.022;12.968;2023-07-31T13:13:04;3.93;;;2.87;;
15383;SDS011;7790;53.022;12.968;2023-07-31T13:17:05;3.90;;;3.37;;
15383;SDS011;7790;53.022;12.968;2023-07-31T13:21:06;4.80;;;2.97;;
15383;SDS011;7790;53.022;12.968;2023-07-31T13:25:07;3.63;;;3.13;;
15383;SDS011;7790;53.022;12.968;2023-07-31T13:29:08;3.47;;;3.17;;
15383;SDS011;7790;53.022;12.968;2023-07-31T13:33:11;4.63;;;2.80;;
15383;SDS011;7790;53.022;12.968;2023-07-31T13:37:12;5.63;;;3.60;;
15383;SDS011;7790;53.022;12.968;2023-07-31T13:41:13;4.30;;;3.10;;
15383;SDS011;7790;53.022;12.968;2023-07-31T13:45:14;3.20;;;2.87;;
15383;SDS011;7790;53.022;12.968;2023-07-31T13:49:15;3.40;;;3.10;;
15383;SDS011;7790;53.022;12.968;2023-07-31T13:53:16;4.53;;;3.37;;
15383;SDS011;7790;53.022;12.968;2023-07-31T13:57:17;3.97;;;3.07;;
15383;SDS011;7790;53.022;12.968;2023-07-31T14:01:18;3.53;;;3.10;;
15383;SDS011;7790;53.022;12.968;2023-07-31T14:05:19;5.63;;;3.47;;
15383;SDS011;7790;53.022;12.968;2023-07-31T14:09:20;3.83;;;3.00;;
15383;SDS011;7790;53.022;12.968;2023-07-31T14:13:21;3.67;;;3.30;;
15383;SDS011;7790;53.022;12.968;2023-07-31T14:17:22;3.67;;;3.20;;
15383;SDS011;7790;53.022;12.968;2023-07-31T14:21:23;3.37;;;2.83;;
15383;SDS011;7790;53.022;12.968;2023-07-31T14:25:25;4.63;;;2.90;;
15383;SDS011;7790;53.022;12.968;2023-07-31T14:29:26;4.27;;;3.30;;
15383;SDS011;7790;53.022;12.968;2023-07-31T14:33:27;4.33;;;3.03;;
15383;SDS011;7790;53.022;12.968;2023-07-31T14:37:36;7.03;;;3.33;;
15383;SDS011;7790;53.022;12.968;2023-07-31T14:41:37;4.53;;;3.30;;
15383;SDS011;7790;53.022;12.968;2023-07-31T14:45:38;2.87;;;2.63;;
15383;SDS011;7790;53.022;12.968;2023-07-31T14:49:39;3.13;;;2.77;;
15383;SDS011;7790;53.022;12.968;2023-07-31T14:53:40;3.73;;;2.97;;
15383;SDS011;7790;53.022;12.968;2023-07-31T14:57:41;3.93;;;2.77;;
15383;SDS011;7790;53.022;12.968;2023-07-31T15:01:42;3.57;;;2.80;;
15383;SDS011;7790;53.022;12.968;2023-07-31T15:05:43;5.70;;;2.97;;
15383;SDS011;7790;53.022;12.968;2023-07-31T15:09:43;3.90;;;3.00;;
15383;SDS011;7790;53.022;12.968;2023-07-31T15:13:44;3.43;;;2.57;;
15383;SDS011;7790;53.022;12.968;2023-07-31T15:17:45;3.07;;;2.70;;
15383;SDS011;7790;53.022;12.968;2023-07-31T15:21:46;4.70;;;2.50;;
15383;SDS011;7790;53.022;12.968;2023-07-31T15:25:47;2.93;;;2.37;;
15383;SDS011;7790;53.022;12.968;2023-07-31T15:29:49;3.30;;;2.33;;
15383;SDS011;7790;53.022;12.968;2023-07-31T15:33:51;3.90;;;2.63;;
15383;SDS011;7790;53.022;12.968;2023-07-31T15:37:52;4.03;;;2.63;;
15383;SDS011;7790;53.022;12.968;2023-07-31T15:41:53;2.50;;;2.20;;
15383;SDS011;7790;53.022;12.968;2023-07-31T15:45:54;3.10;;;2.43;;
15383;SDS011;7790;53.022;12.968;2023-07-31T15:49:55;3.20;;;2.40;;
15383;SDS011;7790;53.022;12.968;2023-07-31T15:53:56;3.53;;;2.13;;
15383;SDS011;7790;53.022;12.968;2023-07-31T15:57:57;3.20;;;2.27;;
15383;SDS011;7790;53.022;12.968;2023-07-31T16:01:58;4.77;;;2.40;;
15383;SDS011;7790;53.022;12.968;2023-07-31T16:05:58;2.67;;;2.20;;
15383;SDS011;7790;53.022;12.968;2023-07-31T16:09:59;5.23;;;2.33;;
15383;SDS011;7790;53.022;12.968;2023-07-31T16:14:00;3.27;;;2.30;;
15383;SDS011;7790;53.022;12.968;2023-07-31T16:18:02;3.07;;;2.40;;
15383;SDS011;7790;53.022;12.968;2023-07-31T16:22:03;3.07;;;2.43;;
15383;SDS011;7790;53.022;12.968;2023-07-31T16:26:04;4.13;;;2.37;;
15383;SDS011;7790;53.022;12.968;2023-07-31T16:30:05;5.17;;;2.33;;
15383;SDS011;7790;53.022;12.968;2023-07-31T16:34:06;4.27;;;2.10;;
15383;SDS011;7790;53.022;12.968;2023-07-31T16:38:07;3.13;;;2.10;;
15383;SDS011;7790;53.022;12.968;2023-07-31T16:42:08;2.90;;;2.60;;
15383;SDS011;7790;53.022;12.968;2023-07-31T16:46:09;2.53;;;2.33;;
15383;SDS011;7790;53.022;12.968;2023-07-31T16:50:10;2.37;;;2.10;;
15383;SDS011;7790;53.022;12.968;2023-07-31T16:54:11;7.07;;;2.57;;
15383;SDS011;7790;53.022;12.968;2023-07-31T16:58:12;2.93;;;2.20;;
15383;SDS011;7790;53.022;12.968;2023-07-31T17:02:13;3.53;;;2.20;;
15383;SDS011;7790;53.022;12.968;2023-07-31T17:06:13;2.40;;;2.20;;
15383;SDS011;7790;53.022;12.968;2023-07-31T17:10:14;3.67;;;2.37;;
15383;SDS011;7790;53.022;12.968;2023-07-31T17:14:15;4.00;;;2.20;;
15383;SDS011;7790;53.022;12.968;2023-07-31T17:18:16;3.47;;;2.37;;
15383;SDS011;7790;53.022;12.968;2023-07-31T17:22:17;5.97;;;2.20;;
15383;SDS011;7790;53.022;12.968;2023-07-31T17:26:18;3.23;;;2.30;;
15383;SDS011;7790;53.022;12.968;2023-07-31T17:30:19;2.63;;;2.30;;
15383;SDS011;7790;53.022;12.968;2023-07-31T17:34:20;3.80;;;2.60;;
15383;SDS011;7790;53.022;12.968;2023-07-31T17:38:21;2.40;;;2.20;;
15383;SDS011;7790;53.022;12.968;2023-07-31T17:42:22;5.00;;;2.53;;
15383;SDS011;7790;53.022;12.968;2023-07-31T17:46:23;3.53;;;2.10;;
15383;SDS011;7790;53.022;12.968;2023-07-31T17:50:24;2.80;;;2.30;;
15383;SDS011;7790;53.022;12.968;2023-07-31T17:54:25;3.03;;;2.30;;
15383;SDS011;7790;53.022;12.968;2023-07-31T17:58:27;4.27;;;2.43;;
15383;SDS011;7790;53.022;12.968;2023-07-31T18:02:28;3.43;;;2.40;;
15383;SDS011;7790;53.022;12.968;2023-07-31T18:06:30;2.70;;;2.47;;
15383;SDS011;7790;53.022;12.968;2023-07-31T18:10:34;3.83;;;2.27;;
15383;SDS011;7790;53.022;12.968;2023-07-31T18:14:35;3.50;;;2.40;;
15383;SDS011;7790;53.022;12.968;2023-07-31T18:18:38;2.40;;;2.13;;
15383;SDS011;7790;53.022;12.968;2023-07-31T18:22:39;3.70;;;2.20;;
15383;SDS011;7790;53.022;12.968;2023-07-31T18:26:39;2.57;;;2.10;;
15383;SDS011;7790;53.022;12.968;2023-07-31T18:30:40;2.93;;;2.00;;
15383;SDS011;7790;53.022;12.968;2023-07-31T18:34:41;2.43;;;2.00;;
15383;SDS011;7790;53.022;12.968;2023-07-31T18:38:42;2.03;;;1.83;;
15383;SDS011;7790;53.022;12.968;2023-07-31T18:42:43;2.80;;;1.90;;
15383;SDS011;7790;53.022;12.968;2023-07-31T18:46:44;2.30;;;2.00;;
15383;SDS011;7790;53.022;12.968;2023-07-31T18:50:45;2.47;;;1.80;;
15383;SDS011;7790;53.022;12.968;2023-07-31T18:54:46;1.90;;;1.70;;
15383;SDS011;7790;53.022;12.968;2023-07-31T18:58:46;3.00;;;2.00;;
15383;SDS011;7790;53.022;12.968;2023-07-31T19:02:51;3.80;;;1.87;;
15383;SDS011;7790;53.022;12.968;2023-07-31T19:06:51;2.13;;;1.60;;
15383;SDS011;7790;53.022;12.968;2023-07-31T19:10:52;3.47;;;1.67;;
15383;SDS011;7790;53.022;12.968;2023-07-31T19:14:53;1.97;;;1.40;;
15383;SDS011;7790;53.022;12.968;2023-07-31T19:18:54;2.60;;;1.57;;
15383;SDS011;7790;53.022;12.968;2023-07-31T19:22:55;2.40;;;1.37;;
15383;SDS011;7790;53.022;12.968;2023-07-31T19:26:56;2.50;;;1.60;;
15383;SDS011;7790;53.022;12.968;2023-07-31T19:30:57;1.67;;;1.33;;
15383;SDS011;7790;53.022;12.968;2023-07-31T19:34:58;1.50;;;1.40;;
15383;SDS011;7790;53.022;12.968;2023-07-31T19:38:59;2.70;;;1.40;;
15383;SDS011;7790;53.022;12.968;2023-07-31T19:43:00;1.43;;;1.20;;
15383;SDS011;7790;53.022;12.968;2023-07-31T19:47:01;2.10;;;1.40;;
15383;SDS011;7790;53.022;12.968;2023-07-31T19:51:02;1.77;;;1.67;;
15383;SDS011;7790;53.022;12.968;2023-07-31T19:55:04;1.30;;;1.10;;
15383;SDS011;7790;53.022;12.968;2023-07-31T19:59:05;1.23;;;1.13;;
15383;SDS011;7790;53.022;12.968;2023-07-31T20:03:06;1.83;;;1.40;;
15383;SDS011;7790;53.022;12.968;2023-07-31T20:07:08;3.83;;;1.60;;
15383;SDS011;7790;53.022;12.968;2023-07-31T20:11:10;2.13;;;1.40;;
15383;SDS011;7790;53.022;12.968;2023-07-31T20:15:18;5.63;;;1.43;;
15383;SDS011;7790;53.022;12.968;2023-07-31T20:19:22;5.70;;;1.57;;
15383;SDS011;7790;53.022;12.968;2023-07-31T20:23:23;4.13;;;1.40;;
15383;SDS011;7790;53.022;12.968;2023-07-31T20:27:24;5.07;;;1.53;;
15383;SDS011;7790;53.022;12.968;2023-07-31T20:31:25;5.27;;;1.73;;
15383;SDS011;7790;53.022;12.968;2023-07-31T20:35:26;2.00;;;1.30;;
15383;SDS011;7790;53.022;12.968;2023-07-31T20:39:27;6.40;;;1.27;;
15383;SDS011;7790;53.022;12.968;2023-07-31T20:43:28;1.93;;;1.30;;
15383;SDS011;7790;53.022;12.968;2023-07-31T20:47:28;1.77;;;1.40;;
15383;SDS011;7790;53.022;12.968;2023-07-31T20:51:30;1.53;;;1.10;;
15383;SDS011;7790;53.022;12.968;2023-07-31T20:55:32;2.17;;;1.20;;
15383;SDS011;7790;53.022;12.968;2023-07-31T20:59:33;3.13;;;1.37;;
15383;SDS011;7790;53.022;12.968;2023-07-31T21:03:34;3.30;;;1.40;;
15383;SDS011;7790;53.022;12.968;2023-07-31T21:07:35;3.53;;;1.30;;
15383;SDS011;7790;53.022;12.968;2023-07-31T21:11:37;3.13;;;1.20;;
15383;SDS011;7790;53.022;12.968;2023-07-31T21:15:38;3.33;;;1.43;;
15383;SDS011;7790;53.022;12.968;2023-07-31T21:19:43;1.30;;;1.20;;
15383;SDS011;7790;53.022;12.968;2023-07-31T21:23:44;2.27;;;1.33;;
15383;SDS011;7790;53.022;12.968;2023-07-31T21:27:46;2.57;;;1.33;;
15383;SDS011;7790;53.022;12.968;2023-07-31T21:31:46;4.33;;;1.27;;
15383;SDS011;7790;53.022;12.968;2023-07-31T21:35:47;1.63;;;1.43;;
15383;SDS011;7790;53.022;12.968;2023-07-31T21:39:48;1.53;;;1.40;;
15383;SDS011;7790;53.022;12.968;2023-07-31T21:43:49;1.13;;;1.10;;
15383;SDS011;7790;53.022;12.968;2023-07-31T21:47:50;1.80;;;1.37;;
15383;SDS011;7790;53.022;12.968;2023-07-31T21:51:51;1.70;;;1.23;;
15383;SDS011;7790;53.022;12.968;2023-07-31T21:55:52;1.07;;;1.03;;
15383;SDS011;7790;53.022;12.968;2023-07-31T21:59:53;3.80;;;1.20;;
15383;SDS011;7790;53.022;12.968;2023-07-31T22:03:54;1.67;;;1.20;;
15383;SDS011;7790;53.022;12.968;2023-07-31T22:07:55;1.43;;;1.10;;
15383;SDS011;7790;53.022;12.968;2023-07-31T22:11:56;1.07;;;0.97;;
15383;SDS011;7790;53.022;12.968;2023-07-31T22:15:57;1.10;;;1.10;;
15383;SDS011;7790;53.022;12.968;2023-07-31T22:19:58;2.23;;;1.20;;
15383;SDS011;7790;53.022;12.968;2023-07-31T22:23:58;1.20;;;1.10;;
15383;SDS011;7790;53.022;12.968;2023-07-31T22:27:59;2.57;;;1.27;;
15383;SDS011;7790;53.022;12.968;2023-07-31T22:32:00;1.33;;;1.10;;
15383;SDS011;7790;53.022;12.968;2023-07-31T22:36:01;1.30;;;1.00;;
15383;SDS011;7790;53.022;12.968;2023-07-31T22:40:02;2.00;;;1.60;;
15383;SDS011;7790;53.022;12.968;2023-07-31T22:44:04;1.20;;;1.10;;
15383;SDS011;7790;53.022;12.968;2023-07-31T22:48:05;1.43;;;1.27;;
15383;SDS011;7790;53.022;12.968;2023-07-31T22:52:06;1.87;;;1.10;;
15383;SDS011;7790;53.022;12.968;2023-07-31T22:56:06;1.63;;;1.30;;
15383;SDS011;7790;53.022;12.968;2023-07-31T23:00:08;1.40;;;1.30;;
15383;SDS011;7790;53.022;12.968;2023-07-31T23:04:09;2.37;;;1.47;;
15383;SDS011;7790;53.022;12.968;2023-07-31T23:08:11;1.03;;;1.03;;
15383;SDS011;7790;53.022;12.968;2023-07-31T23:12:12;1.77;;;1.30;;
15383;SDS011;7790;53.022;12.968;2023-07-31T23:16:13;2.00;;;1.33;;
15383;SDS011;7790;53.022;12.968;2023-07-31T23:20:14;1.70;;;1.30;;
15383;SDS011;7790;53.022;12.968;2023-07-31T23:24:15;1.50;;;1.20;;
15383;SDS011;7790;53.022;12.968;2023-07-31T23:28:16;1.40;;;1.30;;
15383;SDS011;7790;53.022;12.968;2023-07-31T23:32:18;1.50;;;1.27;;
15383;SDS011;7790;53.022;12.968;2023-07-31T23:36:19;2.50;;;1.23;;
15383;SDS011;7790;53.022;12.968;2023-07-31T23:40:20;2.20;;;1.40;;
15383;SDS011;7790;53.022;12.968;2023-07-31T23:44:21;1.93;;;1.40;;
15383;SDS011;7790;53.022;12.968;2023-07-31T23:48:22;1.37;;;1.27;;
15383;SDS011;7790;53.022;12.968;2023-07-31T23:52:23;1.23;;;1.00;;
15383;SDS011;7790;53.022;12.968;2023-07-31T23:56:24;2.00;;;1.10;;
